Main page
METAR-TAF:

METAR-TAF

Airports :

Venice, Italy

Venice Marco Polo Airport

latitude: 45-30N, longitude: 012-20E, elevation: 2 m

Current weather observation

The report was made 17 minutes ago, at 07:20 UTC
Wind 4 kt from the North, varying between West/Northwest and East
Temperature 9°C
Humidity 81%
Pressure 1018 hPa
Visibility 10 km or more
no clouds below 1500 m and no cumulonimbus

METAR: LIPZ 240720Z 01004KT 300V100 CAVOK 09/06 Q1018 NOSIG

Time: 09:37 (07:37 UTC)

Forecast

The report was made 2 hours and 37 minutes ago, at 05:00 UTC
Forecast valid from 24 at 06 UTC to 25 at 12 UTC
Wind 6 kt from variable directions
Visibility 10 km or more
no clouds below 1500 m and no cumulonimbus

TAF: LIPZ 240500Z 2406/2512 VRB06KT CAVOK

Weather observations and forecasts of more than 4000 airports (METAR and TAF reports).

The available stations are represented by yellow and red dots on the map.

Hover mouse over dot to see the name of the station.

Then click to see weather observations and forecasts.

To change the map : click on the green buttons with a black cross to zoom in, on the green button with a dash to zoom out, or on the green arrows for adjacent maps.


METAR-TAF: